createdAt,value
2022-10-08T00:01:19.362Z,2.35
2022-10-08T00:04:22.019Z,2.20
2022-10-08T00:07:24.336Z,2.47
2022-10-08T00:10:27.415Z,2.63
2022-10-08T00:13:40.733Z,2.47
2022-10-08T00:16:42.541Z,2.33
2022-10-08T00:19:44.531Z,2.35
2022-10-08T00:22:46.399Z,2.47
2022-10-08T00:25:49.701Z,2.95
2022-10-08T00:28:52.823Z,2.65
2022-10-08T00:31:54.458Z,2.55
2022-10-08T00:34:57.135Z,2.30
2022-10-08T00:37:58.824Z,2.35
2022-10-08T00:41:02.809Z,2.30
2022-10-08T00:44:37.880Z,2.45
2022-10-08T00:47:44.078Z,2.40
2022-10-08T00:50:45.799Z,2.30
2022-10-08T00:53:47.501Z,2.40
2022-10-08T00:56:53.499Z,2.28
2022-10-08T00:59:56.440Z,2.42
2022-10-08T01:02:58.734Z,2.40
2022-10-08T01:06:11.794Z,2.50
2022-10-08T01:09:19.319Z,2.55
2022-10-08T01:12:36.925Z,2.80
2022-10-08T01:15:45.189Z,2.60
2022-10-08T01:18:56.381Z,2.88
2022-10-08T01:22:07.059Z,2.50
2022-10-08T01:31:46.351Z,3.15
2022-10-08T01:34:53.040Z,2.97
2022-10-08T01:37:58.161Z,2.72
2022-10-08T01:41:05.203Z,2.95
2022-10-08T01:44:13.670Z,2.50
2022-10-08T01:47:20.010Z,2.97
2022-10-08T01:50:29.596Z,3.42
2022-10-08T01:53:36.792Z,3.30
2022-10-08T01:56:41.303Z,3.13
2022-10-08T01:59:48.883Z,3.35
2022-10-08T02:02:50.615Z,3.17
2022-10-08T02:05:55.648Z,3.00
2022-10-08T02:08:57.517Z,2.88
2022-10-08T02:11:59.168Z,2.88
2022-10-08T02:15:04.485Z,2.88
2022-10-08T02:18:10.972Z,2.72
2022-10-08T02:21:19.954Z,3.20
2022-10-08T02:24:26.825Z,3.35
2022-10-08T02:27:34.806Z,2.53
2022-10-08T02:30:43.097Z,2.70
2022-10-08T02:33:50.326Z,2.90
2022-10-08T02:37:01.760Z,2.83
2022-10-08T02:40:09.434Z,2.70
2022-10-08T02:43:19.597Z,2.80
2022-10-08T02:46:25.969Z,2.33
2022-10-08T02:49:31.586Z,2.83
2022-10-08T02:52:38.688Z,2.45
2022-10-08T02:55:48.357Z,2.25
2022-10-08T02:58:50.522Z,2.88
2022-10-08T03:01:59.411Z,2.45
2022-10-08T03:05:05.525Z,2.63
2022-10-08T03:08:09.691Z,2.75
2022-10-08T03:11:12.418Z,2.22
2022-10-08T03:14:16.558Z,2.85
2022-10-08T03:17:26.083Z,2.50
2022-10-08T03:20:27.953Z,2.28
2022-10-08T03:23:29.574Z,2.55
2022-10-08T03:26:31.237Z,2.58
2022-10-08T03:29:32.927Z,2.03
2022-10-08T03:32:35.927Z,2.08
2022-10-08T03:35:37.542Z,2.22
2022-10-08T03:38:39.105Z,1.85
2022-10-08T03:41:40.749Z,2.28
2022-10-08T03:44:42.385Z,2.15
2022-10-08T03:47:50.654Z,2.00
2022-10-08T03:50:53.583Z,2.15
2022-10-08T03:53:55.237Z,1.83
2022-10-08T03:56:56.848Z,2.58
2022-10-08T03:59:58.642Z,1.77
2022-10-08T04:03:01.714Z,2.00
2022-10-08T04:06:04.018Z,1.83
2022-10-08T04:09:05.646Z,1.55
2022-10-08T04:12:07.273Z,1.90
2022-10-08T04:15:09.739Z,1.70
2022-10-08T04:18:14.006Z,1.65
2022-10-08T04:21:17.290Z,1.83
2022-10-08T04:24:18.942Z,1.73
2022-10-08T04:27:20.977Z,1.77
2022-10-08T04:30:24.178Z,1.40
2022-10-08T04:33:28.218Z,1.75
2022-10-08T04:36:29.909Z,2.35
2022-10-08T04:39:31.545Z,1.88
2022-10-08T04:42:33.420Z,2.08
2022-10-08T04:45:35.036Z,2.28
2022-10-08T04:48:39.070Z,2.17
2022-10-08T04:51:40.775Z,1.95
2022-10-08T04:54:42.440Z,2.30
2022-10-08T04:57:44.053Z,2.05
2022-10-08T05:00:45.705Z,1.48
2022-10-08T05:03:50.154Z,1.63
2022-10-08T05:06:51.829Z,1.70
2022-10-08T05:09:53.521Z,1.70
2022-10-08T05:12:55.160Z,1.60
2022-10-08T05:15:56.916Z,2.10
2022-10-08T05:18:59.997Z,1.40
2022-10-08T05:22:01.758Z,1.40
2022-10-08T05:25:03.772Z,1.25
2022-10-08T05:28:05.543Z,1.63
2022-10-08T05:31:07.710Z,1.30
2022-10-08T05:34:12.292Z,1.48
2022-10-08T05:37:13.952Z,1.35
2022-10-08T05:40:15.879Z,1.10
2022-10-08T05:43:17.485Z,1.50
2022-10-08T05:46:19.247Z,1.20
2022-10-08T05:49:23.121Z,1.50
2022-10-08T05:52:27.010Z,1.75
2022-10-08T05:55:28.686Z,1.45
2022-10-08T05:58:30.678Z,1.52
2022-10-08T06:01:33.888Z,1.38
2022-10-08T06:04:36.947Z,1.52
2022-10-08T06:07:38.632Z,1.02
2022-10-08T06:10:48.774Z,1.50
2022-10-08T06:13:52.209Z,1.33
2022-10-08T06:16:53.872Z,1.00
2022-10-08T06:19:56.902Z,1.42
2022-10-08T06:22:58.602Z,1.50
2022-10-08T06:26:01.957Z,1.63
2022-10-08T06:29:05.490Z,1.98
2022-10-08T06:32:07.406Z,1.42
2022-10-08T06:35:10.574Z,1.45
2022-10-08T06:38:12.372Z,2.15
2022-10-08T06:41:14.037Z,1.20
2022-10-08T06:44:15.791Z,1.33
2022-10-08T06:47:17.533Z,1.63
2022-10-08T06:50:20.749Z,1.52
2022-10-08T06:53:22.446Z,1.90
2022-10-08T06:56:25.445Z,1.90
2022-10-08T06:59:27.096Z,1.40
2022-10-08T07:02:28.896Z,1.52
2022-10-08T07:05:33.206Z,1.58
2022-10-08T07:08:37.952Z,1.48
2022-10-08T07:14:41.474Z,1.92
2022-10-08T07:17:43.105Z,1.52
2022-10-08T07:20:54.445Z,1.58
2022-10-08T07:23:56.310Z,1.75
2022-10-08T07:26:58.011Z,1.55
2022-10-08T07:29:59.713Z,1.67
2022-10-08T07:33:01.617Z,1.52
2022-10-08T07:36:10.450Z,1.83
2022-10-08T07:39:14.888Z,2.13
2022-10-08T07:42:16.674Z,1.98
2022-10-08T07:45:18.429Z,2.17
2022-10-08T07:48:20.665Z,1.33
2022-10-08T07:51:23.692Z,1.65
2022-10-08T07:54:25.339Z,1.80
2022-10-08T07:57:27.783Z,1.60
2022-10-08T08:00:29.590Z,1.83
2022-10-08T08:03:31.831Z,1.48
2022-10-08T08:06:39.762Z,1.52
2022-10-08T08:09:41.410Z,1.90
2022-10-08T08:12:43.280Z,1.67
2022-10-08T08:15:44.976Z,1.48
2022-10-08T08:18:48.560Z,2.00
2022-10-08T08:21:51.632Z,1.88
2022-10-08T08:24:53.327Z,1.90
2022-10-08T08:27:55.164Z,1.70
2022-10-08T08:31:06.999Z,2.03
2022-10-08T08:34:11.089Z,1.95
2022-10-08T08:37:14.419Z,1.73
2022-10-08T08:40:16.160Z,1.70
2022-10-08T08:43:18.312Z,2.05
2022-10-08T08:46:21.672Z,1.60
2022-10-08T08:49:28.605Z,1.73
2022-10-08T08:52:37.783Z,1.65
2022-10-08T08:55:44.260Z,1.90
2022-10-08T08:58:53.465Z,1.60
2022-10-08T09:01:59.379Z,1.40
2022-10-08T09:05:04.002Z,0.82
2022-10-08T09:08:16.010Z,1.38
2022-10-08T09:11:21.677Z,1.40
2022-10-08T09:14:34.291Z,1.15
2022-10-08T09:17:39.640Z,1.38
2022-10-08T09:20:41.926Z,1.15
2022-10-08T09:23:45.545Z,0.90
2022-10-08T09:26:48.627Z,0.77
2022-10-08T09:29:50.584Z,1.10
2022-10-08T09:32:53.349Z,1.00
2022-10-08T09:35:55.450Z,0.95
2022-10-08T09:39:00.351Z,0.68
2022-10-08T09:42:14.185Z,0.68
2022-10-08T09:45:33.473Z,0.28
2022-10-08T09:48:35.279Z,0.40
2022-10-08T09:51:37.204Z,0.70
2022-10-08T09:54:48.593Z,0.60
2022-10-08T09:57:53.272Z,0.73
2022-10-08T10:01:16.434Z,0.43
2022-10-08T10:04:21.183Z,0.43
2022-10-08T10:07:24.189Z,0.50
2022-10-08T10:10:29.877Z,0.70
2022-10-08T10:13:36.266Z,0.40
2022-10-08T10:16:41.690Z,0.50
2022-10-08T10:19:50.812Z,0.50
2022-10-08T10:22:57.784Z,0.40
2022-10-08T10:26:06.714Z,0.40
2022-10-08T10:29:15.125Z,0.40
2022-10-08T10:32:23.376Z,0.40
2022-10-08T10:35:27.093Z,0.80
2022-10-08T10:38:30.588Z,0.60
2022-10-08T10:41:37.439Z,0.50
2022-10-08T10:44:51.447Z,0.50
2022-10-08T10:47:54.168Z,0.40
2022-10-08T10:51:04.036Z,0.55
2022-10-08T10:54:21.147Z,0.32
2022-10-08T10:57:40.321Z,0.73
2022-10-08T11:00:51.022Z,0.50
2022-10-08T11:04:02.550Z,0.40
2022-10-08T11:07:12.752Z,0.32
2022-10-08T11:10:28.372Z,0.28
2022-10-08T11:13:42.526Z,0.40
2022-10-08T11:16:56.734Z,0.30
2022-10-08T11:20:23.444Z,0.63
2022-10-08T11:23:40.848Z,0.28
2022-10-08T11:26:51.006Z,0.38
2022-10-08T11:30:02.782Z,0.50
2022-10-08T11:33:05.624Z,0.70
2022-10-08T11:36:25.179Z,0.22
2022-10-08T11:39:37.056Z,0.57
2022-10-08T11:42:48.267Z,0.47
2022-10-08T11:46:22.688Z,0.40
2022-10-08T11:49:49.969Z,0.30
2022-10-08T11:52:53.606Z,0.80
2022-10-08T11:55:58.039Z,0.93
2022-10-08T12:02:19.647Z,0.30
2022-10-08T12:05:36.522Z,0.50
2022-10-08T12:08:53.370Z,0.60
2022-10-08T12:11:55.353Z,0.60
2022-10-08T12:14:57.118Z,0.50
2022-10-08T12:18:02.143Z,0.63
2022-10-08T12:21:49.916Z,0.40
2022-10-08T12:24:53.080Z,0.60
2022-10-08T12:28:35.239Z,0.50
2022-10-08T12:31:40.053Z,0.50
2022-10-08T12:34:44.812Z,0.40
2022-10-08T12:38:03.528Z,0.60
2022-10-08T12:41:18.141Z,0.60
2022-10-08T12:44:38.485Z,0.57
2022-10-08T12:47:48.858Z,0.52
2022-10-08T12:51:03.337Z,0.40
2022-10-08T12:54:05.370Z,0.43
2022-10-08T12:57:10.383Z,0.50
2022-10-08T13:00:22.039Z,0.45
2022-10-08T13:03:25.323Z,0.40
2022-10-08T13:06:33.699Z,0.68
2022-10-08T13:09:35.944Z,0.70
2022-10-08T13:12:37.601Z,0.70
2022-10-08T13:15:39.300Z,0.80
2022-10-08T13:18:43.422Z,0.47
2022-10-08T13:21:55.990Z,0.70
2022-10-08T13:24:57.702Z,0.60
2022-10-08T13:28:11.167Z,0.50
2022-10-08T13:31:23.160Z,0.38
2022-10-08T13:34:28.235Z,0.50
2022-10-08T13:37:36.256Z,0.38
2022-10-08T13:40:38.197Z,0.32
2022-10-08T13:43:39.968Z,0.40
2022-10-08T13:46:41.699Z,0.65
2022-10-08T13:49:44.051Z,0.70
2022-10-08T13:52:53.795Z,0.70
2022-10-08T13:55:55.517Z,0.52
2022-10-08T13:58:57.154Z,0.90
2022-10-08T14:01:58.967Z,0.68
2022-10-08T14:05:00.689Z,0.40
2022-10-08T14:08:11.191Z,0.55
2022-10-08T14:11:17.389Z,0.30
2022-10-08T14:14:19.003Z,0.45
2022-10-08T14:17:20.846Z,0.60
2022-10-08T14:20:22.581Z,0.75
2022-10-08T14:23:25.905Z,0.50
2022-10-08T14:26:28.353Z,0.40
2022-10-08T14:29:32.502Z,0.50
2022-10-08T14:32:34.201Z,0.65
2022-10-08T14:35:35.945Z,0.45
2022-10-08T14:38:38.950Z,0.30
2022-10-08T14:41:41.898Z,0.55
2022-10-08T14:44:43.541Z,0.40
2022-10-08T14:47:45.215Z,0.65
2022-10-08T14:50:46.946Z,0.35
2022-10-08T14:53:51.730Z,0.40
2022-10-08T14:56:53.490Z,0.50
2022-10-08T14:59:55.242Z,0.63
2022-10-08T15:02:56.931Z,0.50
2022-10-08T15:06:00.126Z,0.65
2022-10-08T15:09:03.466Z,0.47
2022-10-08T15:12:05.200Z,0.60
2022-10-08T15:15:07.638Z,0.57
2022-10-08T15:18:11.315Z,0.30
2022-10-08T15:21:12.982Z,0.60
2022-10-08T15:24:16.142Z,0.45
2022-10-08T15:27:20.773Z,0.90
2022-10-08T15:30:23.768Z,0.40
2022-10-08T15:33:25.422Z,0.80
2022-10-08T15:36:30.227Z,0.38
2022-10-08T15:42:37.989Z,0.57
2022-10-08T15:45:42.275Z,0.45
2022-10-08T15:48:50.768Z,0.60
2022-10-08T15:51:52.417Z,0.52
2022-10-08T15:54:55.419Z,0.40
2022-10-08T15:57:57.829Z,0.70
2022-10-08T16:01:05.028Z,0.55
2022-10-08T16:04:07.875Z,0.75
2022-10-08T16:07:09.792Z,0.47
2022-10-08T16:10:12.804Z,0.70
2022-10-08T16:13:14.462Z,0.93
2022-10-08T16:16:17.886Z,0.63
2022-10-08T16:19:21.932Z,0.43
2022-10-08T16:22:23.567Z,0.60
2022-10-08T16:25:26.665Z,0.70
2022-10-08T16:28:31.829Z,0.60
2022-10-08T16:31:36.198Z,0.60
2022-10-08T16:34:37.900Z,0.60
2022-10-08T16:37:39.689Z,0.60
2022-10-08T16:40:42.701Z,0.88
2022-10-08T16:43:46.840Z,0.98
2022-10-08T16:46:50.441Z,0.70
2022-10-08T16:49:52.415Z,1.02
2022-10-08T16:52:54.043Z,1.13
2022-10-08T16:56:01.661Z,0.80
2022-10-08T16:59:05.652Z,0.80
2022-10-08T17:02:09.956Z,0.55
2022-10-08T17:05:11.630Z,0.70
2022-10-08T17:08:14.587Z,0.80
2022-10-08T17:11:19.029Z,0.60
2022-10-08T17:14:20.773Z,0.73
2022-10-08T17:17:22.537Z,0.50
2022-10-08T17:20:24.356Z,0.77
2022-10-08T17:23:27.703Z,0.70
2022-10-08T17:26:31.436Z,0.65
2022-10-08T17:29:35.230Z,0.70
2022-10-08T17:32:36.908Z,0.90
2022-10-08T17:35:38.625Z,1.45
2022-10-08T17:38:42.797Z,1.45
2022-10-08T17:41:45.882Z,1.13
2022-10-08T17:44:47.816Z,1.27
2022-10-08T17:47:49.453Z,0.80
2022-10-08T17:50:51.202Z,1.05
2022-10-08T17:53:54.111Z,0.93
2022-10-08T17:56:58.600Z,0.90
2022-10-08T18:00:00.333Z,1.60
2022-10-08T18:03:02.269Z,0.80
2022-10-08T18:06:05.266Z,0.88
2022-10-08T18:09:09.123Z,1.10
2022-10-08T18:12:12.754Z,1.00
2022-10-08T18:18:17.399Z,0.98
2022-10-08T18:21:20.064Z,1.08
2022-10-08T18:24:22.064Z,1.50
2022-10-08T18:27:25.438Z,0.82
2022-10-08T18:30:27.216Z,1.88
2022-10-08T18:33:30.586Z,2.75
2022-10-08T18:36:33.833Z,3.03
2022-10-08T18:39:35.497Z,1.80
2022-10-08T18:42:38.533Z,1.90
2022-10-08T18:45:40.227Z,1.85
2022-10-08T18:48:42.285Z,1.88
2022-10-08T18:51:44.816Z,2.55
2022-10-08T18:54:46.555Z,2.22
2022-10-08T18:57:52.713Z,2.00
2022-10-08T19:00:54.675Z,1.40
2022-10-08T19:03:58.549Z,2.75
2022-10-08T19:07:00.372Z,1.42
2022-10-08T19:10:02.027Z,1.05
2022-10-08T19:13:04.977Z,1.10
2022-10-08T19:16:13.684Z,1.40
2022-10-08T19:19:18.326Z,1.80
2022-10-08T19:22:20.161Z,1.55
2022-10-08T19:25:21.901Z,2.03
2022-10-08T19:28:25.042Z,1.80
2022-10-08T19:31:28.501Z,1.95
2022-10-08T19:34:30.413Z,2.00
2022-10-08T19:37:32.329Z,1.48
2022-10-08T19:40:34.522Z,2.47
2022-10-08T19:43:38.012Z,3.35
2022-10-08T19:46:39.759Z,2.83
2022-10-08T19:49:41.496Z,3.00
2022-10-08T19:52:45.719Z,2.92
2022-10-08T19:55:50.532Z,2.28
2022-10-08T19:58:53.842Z,2.15
2022-10-08T20:01:55.655Z,1.45
2022-10-08T20:04:57.404Z,0.90
2022-10-08T20:07:59.055Z,0.80
2022-10-08T20:11:02.391Z,1.02
2022-10-08T20:14:06.000Z,0.88
2022-10-08T20:17:07.926Z,1.20
2022-10-08T20:20:31.672Z,0.98
2022-10-08T20:23:32.037Z,1.13
2022-10-08T20:26:34.906Z,1.52
2022-10-08T20:29:38.013Z,1.35
2022-10-08T20:32:39.749Z,1.17
2022-10-08T20:35:41.441Z,0.90
2022-10-08T20:38:43.610Z,1.40
2022-10-08T20:41:45.339Z,0.93
2022-10-08T20:44:48.366Z,1.13
2022-10-08T20:47:50.021Z,1.50
2022-10-08T20:50:51.853Z,1.30
2022-10-08T20:53:56.715Z,1.00
2022-10-08T20:56:58.547Z,1.40
2022-10-08T21:00:01.603Z,0.90
2022-10-08T21:03:03.770Z,0.70
2022-10-08T21:06:07.021Z,0.77
2022-10-08T21:09:08.900Z,1.45
2022-10-08T21:12:10.574Z,1.05
2022-10-08T21:15:13.583Z,0.95
2022-10-08T21:18:15.322Z,1.05
2022-10-08T21:21:17.752Z,1.15
2022-10-08T21:24:19.671Z,1.20
2022-10-08T21:27:21.517Z,1.63
2022-10-08T21:30:24.570Z,1.27
2022-10-08T21:33:26.322Z,1.85
2022-10-08T21:36:29.850Z,1.35
2022-10-08T21:39:31.512Z,1.30
2022-10-08T21:42:33.172Z,1.27
2022-10-08T21:45:36.214Z,1.30
2022-10-08T21:48:38.425Z,1.00
2022-10-08T21:51:40.434Z,1.08
2022-10-08T21:54:42.069Z,0.85
2022-10-08T21:57:43.660Z,0.85
2022-10-08T22:00:46.905Z,1.02
2022-10-08T22:03:48.796Z,0.60
2022-10-08T22:06:51.951Z,1.08
2022-10-08T22:09:53.584Z,1.08
2022-10-08T22:12:55.209Z,1.10
2022-10-08T22:16:00.373Z,1.15
2022-10-08T22:19:02.138Z,1.27
2022-10-08T22:22:03.890Z,0.80
2022-10-08T22:25:05.814Z,0.95
2022-10-08T22:28:08.323Z,1.02
2022-10-08T22:31:13.792Z,1.10
2022-10-08T22:34:15.510Z,1.00
2022-10-08T22:37:17.130Z,0.80
2022-10-08T22:40:18.801Z,0.70
2022-10-08T22:43:20.485Z,0.93
2022-10-08T22:46:25.365Z,0.98
2022-10-08T22:52:28.989Z,0.70
2022-10-08T22:55:31.023Z,0.80
2022-10-08T22:58:33.381Z,1.13
2022-10-08T23:01:36.411Z,0.85
2022-10-08T23:04:38.046Z,0.80
2022-10-08T23:07:39.663Z,1.30
2022-10-08T23:10:41.275Z,0.60
2022-10-08T23:13:46.054Z,0.80
2022-10-08T23:16:49.147Z,0.47
2022-10-08T23:19:50.783Z,0.80
2022-10-08T23:22:52.460Z,0.73
2022-10-08T23:25:54.867Z,0.52
2022-10-08T23:28:58.692Z,0.70
2022-10-08T23:32:01.708Z,0.70
2022-10-08T23:35:03.565Z,0.43
2022-10-08T23:38:05.209Z,0.80
2022-10-08T23:41:08.504Z,0.70
2022-10-08T23:44:10.644Z,0.63
2022-10-08T23:47:13.620Z,1.02
2022-10-08T23:50:15.283Z,0.90
2022-10-08T23:53:17.293Z,0.57
2022-10-08T23:56:20.023Z,0.85
2022-10-08T23:59:21.654Z,0.60
